Time;durP1;ratioP1;P1;durP2;ratioP2;P2;SDS_P1;SDS_P2;PMS_P1;PMS_P2;Temp;Humidity;BMP_temperature;BMP_pressure;BME280_temperature;BME280_humidity;BME280_pressure;Samples;Min_cycle;Max_cycle;Signal;HPM_P1;HPM_P2
2022/03/05 00:01:33;;;;;;;17.60;11.53;;;;;;;;;;5087168;28;20187;-56
2022/03/05 00:04:00;;;;;;;17.97;11.83;;;;;;;;;;5082690;28;20267;-57
2022/03/05 00:06:26;;;;;;;17.17;11.97;;;;;;;;;;5094688;28;20585;-57
2022/03/05 00:08:52;;;;;;;16.80;12.13;;;;;;;;;;5087269;28;20175;-57
2022/03/05 00:11:18;;;;;;;17.93;12.00;;;;;;;;;;5090161;28;20226;-57
2022/03/05 00:13:45;;;;;;;16.50;11.93;;;;;;;;;;5097477;28;20255;-57
2022/03/05 00:16:11;;;;;;;18.27;13.50;;;;;;;;;;5081830;28;20186;-57
2022/03/05 00:18:38;;;;;;;18.73;11.27;;;;;;;;;;5077417;28;20173;-57
2022/03/05 00:21:04;;;;;;;17.03;11.93;;;;;;;;;;5092324;28;20285;-57
2022/03/05 00:23:30;;;;;;;17.33;12.73;;;;;;;;;;5086756;28;20276;-57
2022/03/05 00:25:56;;;;;;;17.80;12.07;;;;;;;;;;5087157;28;20708;-57
2022/03/05 00:28:23;;;;;;;16.00;11.40;;;;;;;;;;5070996;28;20256;-56
2022/03/05 00:30:49;;;;;;;17.27;12.47;;;;;;;;;;5062341;28;20658;-57
2022/03/05 00:33:15;;;;;;;18.73;13.20;;;;;;;;;;5089595;28;20344;-57
2022/03/05 00:35:41;;;;;;;17.87;12.00;;;;;;;;;;5082230;28;20190;-56
2022/03/05 00:38:08;;;;;;;17.83;13.47;;;;;;;;;;5084780;28;20182;-57
2022/03/05 00:40:34;;;;;;;17.93;11.47;;;;;;;;;;5075097;28;20252;-57
2022/03/05 00:43:01;;;;;;;17.37;11.90;;;;;;;;;;5059993;28;20182;-57
2022/03/05 00:45:27;;;;;;;15.27;11.97;;;;;;;;;;5085974;28;20699;-57
2022/03/05 00:47:53;;;;;;;17.00;12.53;;;;;;;;;;5088093;28;20197;-57
2022/03/05 00:50:19;;;;;;;17.73;12.27;;;;;;;;;;5084729;28;20558;-57
2022/03/05 00:52:46;;;;;;;16.97;11.80;;;;;;;;;;5068188;28;20195;-57
2022/03/05 00:55:12;;;;;;;19.63;12.73;;;;;;;;;;5086848;28;20179;-56
2022/03/05 00:57:38;;;;;;;15.03;11.63;;;;;;;;;;5086771;28;20207;-57
2022/03/05 01:00:05;;;;;;;15.73;11.30;;;;;;;;;;5086054;28;20202;-57
2022/03/05 01:02:31;;;;;;;17.87;12.87;;;;;;;;;;5087212;28;20704;-57
2022/03/05 01:04:58;;;;;;;19.73;12.33;;;;;;;;;;5073464;28;20191;-57
2022/03/05 01:07:24;;;;;;;16.17;12.23;;;;;;;;;;5086034;28;20268;-57
2022/03/05 01:09:50;;;;;;;19.20;12.83;;;;;;;;;;5068588;28;20680;-58
2022/03/05 01:12:17;;;;;;;16.97;12.50;;;;;;;;;;5047965;28;20277;-57
2022/03/05 01:14:43;;;;;;;14.50;11.23;;;;;;;;;;5054418;28;20703;-57
2022/03/05 01:17:09;;;;;;;16.87;11.90;;;;;;;;;;5066546;28;20181;-57
2022/03/05 01:19:35;;;;;;;18.17;11.80;;;;;;;;;;5057687;28;20176;-56
2022/03/05 01:22:02;;;;;;;16.20;12.17;;;;;;;;;;5069623;28;20354;-57
2022/03/05 01:24:28;;;;;;;18.33;12.90;;;;;;;;;;5053137;28;20196;-57
2022/03/05 01:26:54;;;;;;;14.93;11.97;;;;;;;;;;5076279;28;20180;-57
2022/03/05 01:29:20;;;;;;;19.07;13.20;;;;;;;;;;5048147;28;20763;-57
2022/03/05 01:31:47;;;;;;;16.33;11.97;;;;;;;;;;5071984;28;20212;-57
2022/03/05 01:34:13;;;;;;;16.27;12.13;;;;;;;;;;5076028;28;20524;-56
2022/03/05 01:36:40;;;;;;;16.17;11.63;;;;;;;;;;5035455;28;20177;-57
2022/03/05 01:39:06;;;;;;;15.33;11.27;;;;;;;;;;5065462;28;20177;-57
2022/03/05 01:41:33;;;;;;;18.33;12.10;;;;;;;;;;5069892;28;20648;-57
2022/03/05 01:44:00;;;;;;;16.20;11.23;;;;;;;;;;5059961;28;20193;-57
2022/03/05 01:46:29;;;;;;;16.33;11.73;;;;;;;;;;5070030;28;20469;-57
2022/03/05 01:48:56;;;;;;;15.37;10.97;;;;;;;;;;5065654;28;20208;-57
2022/03/05 01:51:22;;;;;;;15.67;11.03;;;;;;;;;;5060387;28;20548;-57
2022/03/05 01:53:48;;;;;;;17.03;11.47;;;;;;;;;;5055847;28;20171;-57
2022/03/05 01:56:15;;;;;;;17.93;13.10;;;;;;;;;;5054550;28;20212;-57
2022/03/05 01:58:41;;;;;;;17.30;12.77;;;;;;;;;;5069830;28;20240;-57
2022/03/05 02:01:07;;;;;;;16.73;11.77;;;;;;;;;;5069317;28;20180;-58
2022/03/05 02:03:34;;;;;;;18.13;12.47;;;;;;;;;;5066351;28;20181;-57
2022/03/05 02:06:00;;;;;;;18.10;12.00;;;;;;;;;;5067146;28;20532;-58
2022/03/05 02:08:26;;;;;;;17.80;12.13;;;;;;;;;;5066696;28;20548;-57
2022/03/05 02:10:53;;;;;;;19.63;12.13;;;;;;;;;;5064198;28;20224;-57
2022/03/05 02:13:20;;;;;;;19.13;12.40;;;;;;;;;;5085324;28;20286;-57
2022/03/05 02:15:46;;;;;;;17.43;12.53;;;;;;;;;;5085955;28;20180;-56
2022/03/05 02:18:13;;;;;;;17.50;11.97;;;;;;;;;;5071836;28;20653;-57
2022/03/05 02:20:42;;;;;;;18.13;12.63;;;;;;;;;;5081111;28;20225;-57
2022/03/05 02:23:08;;;;;;;16.33;11.60;;;;;;;;;;5101524;28;20168;-58
2022/03/05 02:25:35;;;;;;;17.53;12.10;;;;;;;;;;5072834;28;20186;-57
2022/03/05 02:28:02;;;;;;;19.27;12.33;;;;;;;;;;5089146;28;20168;-57
2022/03/05 02:30:28;;;;;;;16.67;13.00;;;;;;;;;;5094305;28;20206;-57
2022/03/05 02:32:54;;;;;;;15.67;11.37;;;;;;;;;;5086817;28;20196;-57
2022/03/05 02:35:20;;;;;;;17.33;11.87;;;;;;;;;;5069740;28;20180;-57
2022/03/05 02:37:47;;;;;;;18.17;12.37;;;;;;;;;;5079477;28;20172;-57
2022/03/05 02:40:13;;;;;;;17.77;12.27;;;;;;;;;;5072800;28;20160;-57
2022/03/05 02:42:39;;;;;;;15.20;10.73;;;;;;;;;;5089405;28;20194;-57
2022/03/05 02:45:05;;;;;;;19.40;12.77;;;;;;;;;;5088516;28;20175;-57
2022/03/05 02:47:32;;;;;;;18.10;11.57;;;;;;;;;;5096564;28;20179;-58
2022/03/05 02:49:58;;;;;;;18.07;12.33;;;;;;;;;;5072033;28;20183;-57
2022/03/05 02:52:24;;;;;;;20.90;13.07;;;;;;;;;;5089691;28;20261;-57
2022/03/05 02:54:50;;;;;;;21.20;12.77;;;;;;;;;;5088653;28;20639;-57
2022/03/05 02:57:17;;;;;;;18.43;11.27;;;;;;;;;;5072580;28;20761;-57
2022/03/05 02:59:43;;;;;;;16.27;11.87;;;;;;;;;;5071555;28;20588;-57
2022/03/05 03:02:09;;;;;;;16.30;11.37;;;;;;;;;;5088610;28;20207;-57
2022/03/05 03:04:36;;;;;;;18.23;12.87;;;;;;;;;;5077258;28;20654;-57
2022/03/05 03:07:02;;;;;;;16.33;11.83;;;;;;;;;;5087634;28;20183;-57
2022/03/05 03:09:30;;;;;;;16.73;11.17;;;;;;;;;;5086473;28;20208;-57
2022/03/05 03:11:56;;;;;;;16.87;12.43;;;;;;;;;;5073748;28;20199;-57
2022/03/05 03:14:22;;;;;;;15.17;10.87;;;;;;;;;;5077550;28;20182;-57
2022/03/05 03:16:48;;;;;;;19.10;11.83;;;;;;;;;;5086990;28;20180;-57
2022/03/05 03:19:15;;;;;;;16.70;11.33;;;;;;;;;;5091562;28;20205;-57
2022/03/05 03:21:41;;;;;;;17.00;12.17;;;;;;;;;;5088188;28;20579;-57
2022/03/05 03:24:07;;;;;;;17.50;11.67;;;;;;;;;;5081777;28;20507;-57
2022/03/05 03:26:33;;;;;;;16.97;11.87;;;;;;;;;;5076820;28;20659;-58
2022/03/05 03:28:59;;;;;;;18.90;12.43;;;;;;;;;;5075437;28;20602;-57
2022/03/05 03:31:26;;;;;;;17.93;12.17;;;;;;;;;;5079478;28;20207;-57
2022/03/05 03:33:53;;;;;;;16.83;12.43;;;;;;;;;;5094145;28;20666;-57
2022/03/05 03:36:19;;;;;;;16.40;11.37;;;;;;;;;;5073611;28;20187;-57
2022/03/05 03:38:45;;;;;;;15.00;11.23;;;;;;;;;;5084334;28;20187;-57
2022/03/05 03:41:11;;;;;;;16.13;11.13;;;;;;;;;;5081406;28;20183;-58
2022/03/05 03:43:37;;;;;;;17.17;12.50;;;;;;;;;;5088336;28;20187;-58
2022/03/05 03:46:03;;;;;;;20.93;12.97;;;;;;;;;;5088577;28;21067;-58
2022/03/05 03:48:29;;;;;;;16.73;12.20;;;;;;;;;;5087947;28;20184;-58
2022/03/05 03:50:56;;;;;;;16.27;11.60;;;;;;;;;;5088392;28;20203;-58
2022/03/05 03:53:22;;;;;;;18.97;12.50;;;;;;;;;;5088392;28;20729;-58
2022/03/05 03:55:48;;;;;;;17.63;12.03;;;;;;;;;;5087737;28;20661;-58
2022/03/05 03:58:15;;;;;;;21.80;12.63;;;;;;;;;;5087419;28;20210;-58
2022/03/05 04:00:41;;;;;;;16.30;11.37;;;;;;;;;;5087177;28;20176;-57
2022/03/05 04:03:07;;;;;;;17.37;11.40;;;;;;;;;;5076149;28;20658;-56
2022/03/05 04:05:33;;;;;;;16.93;10.87;;;;;;;;;;5069962;28;20183;-58
2022/03/05 04:10:44;;;;;;;17.10;12.03;;;;;;;;;;5082886;28;20238;-57
2022/03/05 04:13:10;;;;;;;16.97;10.73;;;;;;;;;;5085168;28;20225;-57
2022/03/05 04:15:38;;;;;;;16.40;11.33;;;;;;;;;;5083956;28;20188;-57
2022/03/05 04:18:04;;;;;;;14.53;10.17;;;;;;;;;;5087129;28;20182;-57
2022/03/05 04:20:30;;;;;;;15.73;11.13;;;;;;;;;;5092052;28;20422;-57
2022/03/05 04:22:58;;;;;;;15.43;10.60;;;;;;;;;;5073839;28;20654;-57
2022/03/05 04:25:24;;;;;;;13.20;9.90;;;;;;;;;;5087178;28;20706;-57
2022/03/05 04:27:50;;;;;;;17.23;11.50;;;;;;;;;;5087327;28;20967;-57
2022/03/05 04:30:17;;;;;;;16.63;11.87;;;;;;;;;;5074194;28;20499;-57
2022/03/05 04:32:43;;;;;;;15.80;11.57;;;;;;;;;;5087663;28;20673;-57
2022/03/05 04:35:09;;;;;;;18.70;11.47;;;;;;;;;;5085741;28;20180;-57
2022/03/05 04:37:36;;;;;;;16.87;11.60;;;;;;;;;;5069273;28;20179;-57
2022/03/05 04:40:02;;;;;;;17.90;11.37;;;;;;;;;;5073541;28;20687;-57
2022/03/05 04:42:28;;;;;;;18.73;10.80;;;;;;;;;;5086782;28;20624;-57
2022/03/05 04:44:55;;;;;;;16.50;12.03;;;;;;;;;;5075084;28;21090;-58
2022/03/05 04:47:21;;;;;;;17.80;11.57;;;;;;;;;;5071558;28;20843;-57
2022/03/05 04:49:48;;;;;;;16.13;11.70;;;;;;;;;;5069535;28;20279;-57
2022/03/05 04:52:15;;;;;;;17.00;11.60;;;;;;;;;;5089381;28;20211;-58
2022/03/05 04:54:41;;;;;;;17.63;11.47;;;;;;;;;;5073458;28;20562;-57
2022/03/05 04:57:07;;;;;;;16.00;10.83;;;;;;;;;;5090798;28;20795;-58
2022/03/05 04:59:34;;;;;;;15.73;10.77;;;;;;;;;;5077813;28;20175;-57
2022/03/05 05:02:00;;;;;;;17.50;11.60;;;;;;;;;;5072915;28;20235;-57
2022/03/05 05:04:26;;;;;;;16.87;11.27;;;;;;;;;;5072332;28;20397;-58
2022/03/05 05:06:53;;;;;;;14.83;10.13;;;;;;;;;;5088331;28;20643;-57
2022/03/05 05:09:19;;;;;;;16.43;11.70;;;;;;;;;;5090341;28;20267;-57
2022/03/05 05:11:45;;;;;;;16.50;11.10;;;;;;;;;;5090518;28;21049;-58
2022/03/05 05:14:11;;;;;;;13.37;9.17;;;;;;;;;;5056380;28;20433;-57
2022/03/05 05:16:38;;;;;;;17.07;11.83;;;;;;;;;;5076437;28;20179;-58
2022/03/05 05:21:49;;;;;;;19.13;11.83;;;;;;;;;;5088177;28;20528;-58
2022/03/05 05:24:16;;;;;;;14.20;9.83;;;;;;;;;;5090177;28;20846;-58
2022/03/05 05:26:42;;;;;;;17.37;11.30;;;;;;;;;;5071844;28;20643;-57
2022/03/05 05:29:08;;;;;;;20.03;11.70;;;;;;;;;;5081024;28;20179;-57
2022/03/05 05:31:34;;;;;;;12.73;9.93;;;;;;;;;;5072895;28;20183;-58
2022/03/05 05:34:01;;;;;;;15.50;10.87;;;;;;;;;;5093076;28;20516;-58
2022/03/05 05:36:27;;;;;;;16.77;11.93;;;;;;;;;;5070608;28;20229;-58
2022/03/05 05:38:54;;;;;;;15.87;11.10;;;;;;;;;;5077888;28;20440;-57
2022/03/05 05:41:20;;;;;;;17.70;11.40;;;;;;;;;;5089503;28;20422;-58
2022/03/05 05:43:46;;;;;;;14.30;10.40;;;;;;;;;;5077853;28;21007;-58
2022/03/05 05:46:13;;;;;;;13.20;9.73;;;;;;;;;;5071160;28;20850;-58
2022/03/05 05:48:39;;;;;;;17.57;10.93;;;;;;;;;;5094986;28;20450;-58
2022/03/05 05:51:05;;;;;;;14.83;9.90;;;;;;;;;;5069842;28;20449;-57
2022/03/05 05:53:32;;;;;;;14.60;10.30;;;;;;;;;;5072881;28;20209;-58
2022/03/05 05:55:58;;;;;;;18.63;11.10;;;;;;;;;;5077571;28;20905;-58
2022/03/05 05:58:24;;;;;;;15.40;9.93;;;;;;;;;;5091099;28;20946;-58
2022/03/05 06:00:50;;;;;;;15.60;10.00;;;;;;;;;;5088288;28;20907;-58
2022/03/05 06:03:17;;;;;;;18.20;11.73;;;;;;;;;;5071481;28;20593;-58
2022/03/05 06:05:43;;;;;;;14.77;10.53;;;;;;;;;;5073390;28;20421;-58
2022/03/05 06:08:09;;;;;;;16.37;11.20;;;;;;;;;;5070764;28;20418;-58
2022/03/05 06:10:35;;;;;;;16.53;10.80;;;;;;;;;;5062081;28;20710;-58
2022/03/05 06:13:01;;;;;;;17.30;11.57;;;;;;;;;;5069358;28;20946;-58
2022/03/05 06:15:28;;;;;;;15.87;10.63;;;;;;;;;;5051318;28;20180;-58
2022/03/05 06:17:56;;;;;;;17.70;11.00;;;;;;;;;;5052247;28;20419;-58
2022/03/05 06:20:22;;;;;;;13.83;9.80;;;;;;;;;;5049495;28;20437;-58
2022/03/05 06:22:49;;;;;;;14.60;10.00;;;;;;;;;;5069021;28;20442;-58
2022/03/05 06:25:17;;;;;;;16.97;10.87;;;;;;;;;;5050353;28;20953;-58
2022/03/05 06:27:44;;;;;;;16.03;10.87;;;;;;;;;;5077425;28;20419;-58
2022/03/05 06:30:11;;;;;;;17.23;10.77;;;;;;;;;;5065781;28;20421;-58
2022/03/05 06:32:37;;;;;;;16.27;11.33;;;;;;;;;;5042740;28;20446;-58
2022/03/05 06:35:05;;;;;;;15.33;10.63;;;;;;;;;;5066429;28;20975;-58
2022/03/05 06:37:31;;;;;;;15.00;9.70;;;;;;;;;;5054802;28;20925;-58
2022/03/05 06:39:57;;;;;;;16.37;10.63;;;;;;;;;;5048668;28;20453;-58
2022/03/05 06:42:23;;;;;;;14.23;10.07;;;;;;;;;;5060090;28;20468;-58
2022/03/05 06:44:50;;;;;;;15.97;10.20;;;;;;;;;;5072479;28;20964;-57
2022/03/05 06:47:16;;;;;;;15.90;10.13;;;;;;;;;;5054210;28;20462;-58
2022/03/05 06:49:43;;;;;;;14.83;10.03;;;;;;;;;;5052320;28;20472;-58
2022/03/05 06:52:12;;;;;;;17.53;11.33;;;;;;;;;;5057322;28;20200;-58
2022/03/05 06:54:39;;;;;;;16.47;10.43;;;;;;;;;;5069411;28;20475;-57
2022/03/05 06:57:05;;;;;;;12.97;9.50;;;;;;;;;;5050742;28;20473;-58
2022/03/05 06:59:31;;;;;;;16.57;9.50;;;;;;;;;;5033350;28;20423;-58
2022/03/05 07:02:01;;;;;;;19.17;11.07;;;;;;;;;;5050878;28;20847;-58
2022/03/05 07:04:27;;;;;;;19.17;10.30;;;;;;;;;;5040794;28;20574;-58
2022/03/05 07:06:53;;;;;;;15.70;10.77;;;;;;;;;;5057354;28;20514;-58
2022/03/05 07:09:19;;;;;;;14.40;9.57;;;;;;;;;;5059365;28;20575;-58
2022/03/05 07:11:45;;;;;;;16.63;10.67;;;;;;;;;;5059717;28;20431;-58
2022/03/05 07:14:12;;;;;;;15.67;10.10;;;;;;;;;;5060453;28;20512;-58
2022/03/05 07:16:38;;;;;;;16.80;9.97;;;;;;;;;;5046124;28;20184;-58
2022/03/05 07:19:04;;;;;;;14.07;10.10;;;;;;;;;;5049265;28;20438;-58
2022/03/05 07:21:30;;;;;;;16.77;10.30;;;;;;;;;;5052152;28;20744;-58
2022/03/05 07:23:58;;;;;;;18.73;10.50;;;;;;;;;;5063363;28;20569;-58
2022/03/05 07:26:25;;;;;;;15.17;10.37;;;;;;;;;;5063279;28;20423;-58
2022/03/05 07:28:51;;;;;;;14.23;9.10;;;;;;;;;;5078578;28;20423;-58
2022/03/05 07:31:18;;;;;;;14.97;10.43;;;;;;;;;;5060884;28;20430;-58
2022/03/05 07:33:44;;;;;;;16.73;10.00;;;;;;;;;;5046648;28;20562;-58
2022/03/05 07:36:10;;;;;;;14.37;9.87;;;;;;;;;;5062643;28;20459;-58
2022/03/05 07:38:40;;;;;;;16.10;11.10;;;;;;;;;;5069680;28;20449;-58
2022/03/05 07:41:07;;;;;;;16.80;10.57;;;;;;;;;;5048223;28;20506;-57
2022/03/05 07:43:33;;;;;;;15.60;10.83;;;;;;;;;;5064852;28;20430;-57
2022/03/05 07:45:59;;;;;;;16.97;10.97;;;;;;;;;;5060744;28;20434;-58
2022/03/05 07:48:26;;;;;;;17.40;11.30;;;;;;;;;;5063785;28;20420;-58
2022/03/05 07:50:52;;;;;;;15.93;10.27;;;;;;;;;;5038361;28;20416;-58
2022/03/05 07:53:18;;;;;;;15.87;9.93;;;;;;;;;;5031451;28;20459;-57
2022/03/05 07:55:45;;;;;;;14.50;9.93;;;;;;;;;;5048130;28;20426;-58
2022/03/05 07:58:11;;;;;;;14.97;9.93;;;;;;;;;;5048522;28;20535;-58
2022/03/05 08:00:37;;;;;;;15.87;9.73;;;;;;;;;;5057818;28;20838;-58
2022/03/05 08:03:03;;;;;;;18.20;11.03;;;;;;;;;;5047749;28;20423;-58
2022/03/05 08:05:30;;;;;;;16.47;10.00;;;;;;;;;;5049256;28;20302;-57
2022/03/05 08:07:56;;;;;;;15.50;9.60;;;;;;;;;;5059418;28;20921;-58
2022/03/05 08:10:22;;;;;;;15.90;10.57;;;;;;;;;;5065960;28;20517;-58
2022/03/05 08:12:49;;;;;;;21.50;12.00;;;;;;;;;;5060884;28;20988;-58
2022/03/05 08:15:15;;;;;;;14.50;9.60;;;;;;;;;;5068668;28;20842;-58
2022/03/05 08:17:51;;;;;;;14.63;10.23;;;;;;;;;;5079401;28;20425;-57
2022/03/05 08:20:18;;;;;;;24.90;9.67;;;;;;;;;;5085543;28;20768;-59
2022/03/05 08:22:44;;;;;;;29.53;11.40;;;;;;;;;;5072130;28;20983;-61
2022/03/05 08:25:10;;;;;;;26.73;12.07;;;;;;;;;;5071411;28;20501;-58
2022/03/05 08:27:37;;;;;;;23.53;9.97;;;;;;;;;;5088663;28;20425;-58
2022/03/05 08:30:03;;;;;;;21.77;10.60;;;;;;;;;;5085556;28;20417;-58
2022/03/05 08:32:30;;;;;;;25.73;10.73;;;;;;;;;;5078811;28;20457;-58
2022/03/05 08:34:56;;;;;;;20.17;10.50;;;;;;;;;;5082146;28;20458;-58
2022/03/05 08:37:22;;;;;;;20.80;11.20;;;;;;;;;;5063334;28;20684;-58
2022/03/05 08:39:48;;;;;;;17.47;10.33;;;;;;;;;;5071097;28;20529;-57
2022/03/05 08:42:15;;;;;;;21.63;10.40;;;;;;;;;;5094062;28;20805;-58
2022/03/05 08:44:42;;;;;;;14.83;9.07;;;;;;;;;;5062924;28;20767;-58
2022/03/05 08:47:08;;;;;;;18.73;9.90;;;;;;;;;;5061455;28;20418;-58
2022/03/05 08:49:34;;;;;;;18.00;10.07;;;;;;;;;;5078244;28;20468;-58
2022/03/05 08:52:01;;;;;;;16.77;10.27;;;;;;;;;;5068947;28;20594;-59
2022/03/05 08:54:27;;;;;;;22.63;9.57;;;;;;;;;;5068791;28;20442;-58
2022/03/05 08:56:53;;;;;;;16.70;10.03;;;;;;;;;;5070125;28;20448;-58
2022/03/05 08:59:19;;;;;;;18.77;11.00;;;;;;;;;;5086656;28;20475;-58
2022/03/05 09:01:46;;;;;;;16.73;10.23;;;;;;;;;;5090405;28;20805;-57
2022/03/05 09:04:12;;;;;;;17.20;10.20;;;;;;;;;;5074514;28;20471;-57
2022/03/05 09:06:39;;;;;;;18.23;10.67;;;;;;;;;;5066760;28;20904;-58
2022/03/05 09:09:05;;;;;;;18.60;10.73;;;;;;;;;;5085044;28;20958;-58
2022/03/05 09:11:32;;;;;;;15.63;9.70;;;;;;;;;;5067846;28;20504;-58
2022/03/05 09:13:58;;;;;;;14.60;9.67;;;;;;;;;;5074884;28;20814;-58
2022/03/05 09:16:25;;;;;;;17.80;9.90;;;;;;;;;;5086959;28;20933;-58
2022/03/05 09:18:51;;;;;;;16.90;9.37;;;;;;;;;;5067056;28;20180;-58
2022/03/05 09:21:18;;;;;;;13.70;9.63;;;;;;;;;;5065162;28;20203;-58
2022/03/05 09:23:44;;;;;;;15.33;10.40;;;;;;;;;;5065107;28;20180;-59
2022/03/05 09:26:10;;;;;;;14.37;9.70;;;;;;;;;;5084334;28;20474;-57
2022/03/05 09:28:36;;;;;;;14.13;8.90;;;;;;;;;;5068800;28;20186;-57
2022/03/05 09:31:02;;;;;;;18.57;10.80;;;;;;;;;;5087668;28;20182;-57
2022/03/05 09:33:29;;;;;;;18.63;10.40;;;;;;;;;;5065959;28;20212;-57
2022/03/05 09:35:55;;;;;;;18.30;10.63;;;;;;;;;;5073061;28;20267;-58
2022/03/05 09:38:21;;;;;;;15.73;9.93;;;;;;;;;;5085634;28;20172;-58
2022/03/05 09:40:48;;;;;;;16.00;9.80;;;;;;;;;;5073718;28;20182;-58
2022/03/05 09:43:14;;;;;;;17.77;9.73;;;;;;;;;;5090068;28;20216;-58
2022/03/05 09:45:43;;;;;;;16.83;9.40;;;;;;;;;;5096393;28;20191;-58
2022/03/05 09:48:10;;;;;;;12.63;9.23;;;;;;;;;;5082792;28;20179;-59
2022/03/05 09:50:36;;;;;;;17.90;10.67;;;;;;;;;;5082053;28;20187;-57
2022/03/05 09:53:03;;;;;;;13.77;9.30;;;;;;;;;;5098519;28;20200;-58
2022/03/05 09:55:30;;;;;;;14.13;9.50;;;;;;;;;;5094665;28;20771;-58
2022/03/05 09:57:56;;;;;;;15.40;9.70;;;;;;;;;;5091858;28;20195;-58
2022/03/05 10:00:22;;;;;;;15.67;8.80;;;;;;;;;;5067459;28;20190;-58
2022/03/05 10:02:49;;;;;;;14.77;10.33;;;;;;;;;;5060527;28;20286;-56
2022/03/05 10:05:15;;;;;;;17.83;10.07;;;;;;;;;;5100001;28;20734;-57
2022/03/05 10:08:00;;;;;;;16.17;9.53;;;;;;;;;;5089157;28;20184;-56
2022/03/05 10:10:30;;;;;;;15.07;10.23;;;;;;;;;;5089671;28;20238;-56
2022/03/05 10:12:56;;;;;;;15.67;9.83;;;;;;;;;;5073104;28;20590;-56
2022/03/05 10:15:22;;;;;;;15.27;10.13;;;;;;;;;;5086692;28;20171;-57
2022/03/05 10:17:53;;;;;;;15.47;10.03;;;;;;;;;;5077386;28;20175;-57
2022/03/05 10:20:30;;;;;;;14.70;9.60;;;;;;;;;;5069906;28;20183;-58
2022/03/05 10:22:57;;;;;;;16.10;8.90;;;;;;;;;;5078972;28;20271;-57
2022/03/05 10:25:40;;;;;;;14.40;8.90;;;;;;;;;;5088501;28;20184;-58
2022/03/05 10:28:07;;;;;;;14.40;8.93;;;;;;;;;;5073005;28;20186;-57
2022/03/05 10:30:34;;;;;;;16.23;9.60;;;;;;;;;;5068124;28;20184;-57
2022/03/05 10:33:01;;;;;;;12.70;9.47;;;;;;;;;;5088960;28;20210;-57
2022/03/05 10:35:31;;;;;;;15.50;10.23;;;;;;;;;;5070578;28;20203;-57
2022/03/05 10:37:57;;;;;;;14.53;10.07;;;;;;;;;;5089113;28;20651;-57
2022/03/05 10:40:31;;;;;;;15.80;9.43;;;;;;;;;;5071042;28;20595;-58
2022/03/05 10:43:07;;;;;;;15.13;9.87;;;;;;;;;;5094243;28;20597;-56
2022/03/05 10:45:50;;;;;;;13.87;9.27;;;;;;;;;;5059999;28;20171;-57
2022/03/05 10:48:24;;;;;;;15.30;9.23;;;;;;;;;;5083684;28;20198;-56
2022/03/05 10:50:55;;;;;;;16.80;9.93;;;;;;;;;;5096490;28;20206;-57
2022/03/05 10:53:34;;;;;;;13.53;9.43;;;;;;;;;;5088686;28;20294;-58
2022/03/05 10:56:20;;;;;;;14.53;9.53;;;;;;;;;;5084566;28;20176;-57
2022/03/05 10:58:56;;;;;;;17.53;8.87;;;;;;;;;;5080374;28;20172;-57
2022/03/05 11:01:22;;;;;;;14.43;8.73;;;;;;;;;;5070390;28;20236;-57
2022/03/05 11:03:50;;;;;;;16.83;9.13;;;;;;;;;;5069926;28;20188;-57
2022/03/05 11:06:16;;;;;;;15.43;9.50;;;;;;;;;;5086807;28;20186;-54
2022/03/05 11:08:46;;;;;;;15.13;9.33;;;;;;;;;;5080377;28;20180;-55
2022/03/05 11:11:14;;;;;;;21.70;10.57;;;;;;;;;;5067934;28;20807;-55
2022/03/05 11:13:41;;;;;;;13.53;8.53;;;;;;;;;;5082965;28;20227;-55
2022/03/05 11:16:07;;;;;;;16.70;10.17;;;;;;;;;;5075824;28;20640;-55
2022/03/05 11:18:33;;;;;;;12.57;8.90;;;;;;;;;;5070072;28;20172;-58
2022/03/05 11:21:03;;;;;;;12.47;8.27;;;;;;;;;;5084310;28;20645;-58
2022/03/05 11:23:29;;;;;;;14.93;10.00;;;;;;;;;;5083934;28;20309;-58
2022/03/05 11:25:56;;;;;;;13.57;9.20;;;;;;;;;;5067263;28;20184;-59
2022/03/05 11:28:25;;;;;;;12.27;8.07;;;;;;;;;;5071694;28;20194;-59
2022/03/05 11:30:54;;;;;;;12.60;8.20;;;;;;;;;;5084248;28;20572;-57
2022/03/05 11:33:22;;;;;;;11.50;8.60;;;;;;;;;;5067959;28;20248;-54
2022/03/05 11:35:48;;;;;;;13.00;8.60;;;;;;;;;;5085719;28;20266;-58
2022/03/05 11:38:36;;;;;;;12.80;8.67;;;;;;;;;;5069115;28;20176;-58
2022/03/05 11:41:06;;;;;;;12.33;8.70;;;;;;;;;;5068168;28;20675;-60
2022/03/05 11:43:42;;;;;;;14.67;8.63;;;;;;;;;;5083367;28;20250;-59
2022/03/05 11:46:08;;;;;;;13.33;9.13;;;;;;;;;;5061944;28;20222;-58
2022/03/05 11:48:38;;;;;;;11.97;8.23;;;;;;;;;;5068645;28;20278;-58
2022/03/05 11:51:12;;;;;;;13.57;9.37;;;;;;;;;;5066259;28;20180;-58
2022/03/05 11:53:38;;;;;;;14.83;9.70;;;;;;;;;;5083242;28;20324;-58
2022/03/05 11:56:21;;;;;;;13.33;8.97;;;;;;;;;;5066146;28;20176;-59
2022/03/05 11:58:47;;;;;;;10.93;7.83;;;;;;;;;;5065404;28;20602;-59
2022/03/05 12:01:49;;;;;;;13.23;8.33;;;;;;;;;;5068795;28;20184;-59
2022/03/05 12:04:19;;;;;;;21.17;11.53;;;;;;;;;;4985176;28;20551;-59
2022/03/05 12:06:47;;;;;;;12.30;8.27;;;;;;;;;;5077230;28;20187;-60
2022/03/05 12:09:32;;;;;;;15.40;9.87;;;;;;;;;;5068584;28;20871;-59
2022/03/05 12:11:59;;;;;;;10.90;8.03;;;;;;;;;;5067318;28;20558;-60
2022/03/05 12:14:45;;;;;;;13.43;8.37;;;;;;;;;;5077497;28;20206;-61
2022/03/05 12:17:12;;;;;;;11.20;8.07;;;;;;;;;;5081863;28;20207;-60
2022/03/05 12:19:45;;;;;;;11.20;8.07;;;;;;;;;;5067917;28;20277;-60
2022/03/05 12:22:15;;;;;;;12.00;8.17;;;;;;;;;;5089356;28;20173;-61
2022/03/05 12:24:41;;;;;;;11.40;8.53;;;;;;;;;;5068671;28;20276;-61
2022/03/05 12:27:12;;;;;;;11.47;8.50;;;;;;;;;;5087070;28;20187;-61
2022/03/05 12:29:46;;;;;;;14.63;9.13;;;;;;;;;;5068082;28;20183;-59
2022/03/05 12:32:14;;;;;;;13.17;8.70;;;;;;;;;;5086131;28;20191;-60
2022/03/05 12:34:40;;;;;;;11.47;8.13;;;;;;;;;;5083219;28;20199;-60
2022/03/05 12:37:06;;;;;;;10.83;8.50;;;;;;;;;;5082466;28;20225;-58
2022/03/05 12:39:32;;;;;;;11.03;8.13;;;;;;;;;;5067864;28;20520;-58
2022/03/05 12:41:58;;;;;;;12.63;9.63;;;;;;;;;;5067620;28;20228;-59
2022/03/05 12:44:24;;;;;;;28.40;9.13;;;;;;;;;;5067791;28;20176;-60
2022/03/05 12:46:51;;;;;;;12.90;8.97;;;;;;;;;;5068254;28;20175;-63
2022/03/05 12:49:17;;;;;;;13.07;10.00;;;;;;;;;;5069099;28;20176;-59
2022/03/05 12:51:43;;;;;;;12.63;9.17;;;;;;;;;;5088725;28;20178;-60
2022/03/05 12:54:09;;;;;;;15.47;9.70;;;;;;;;;;5095083;28;20180;-61
2022/03/05 12:56:36;;;;;;;13.40;9.33;;;;;;;;;;5087131;28;20245;-59
2022/03/05 12:59:04;;;;;;;13.87;9.57;;;;;;;;;;5085614;28;20318;-58
2022/03/05 13:01:30;;;;;;;13.77;10.33;;;;;;;;;;5068967;28;20677;-59
2022/03/05 13:03:57;;;;;;;15.23;10.50;;;;;;;;;;5066227;28;20167;-60
2022/03/05 13:06:24;;;;;;;13.13;9.30;;;;;;;;;;5066755;28;20178;-58
2022/03/05 13:08:50;;;;;;;13.17;9.53;;;;;;;;;;5069720;28;20634;-59
2022/03/05 13:11:16;;;;;;;12.80;9.40;;;;;;;;;;5089020;28;20582;-59
2022/03/05 13:13:43;;;;;;;12.57;10.20;;;;;;;;;;5077197;28;20199;-59
2022/03/05 13:16:10;;;;;;;11.90;9.20;;;;;;;;;;5091637;28;20267;-58
2022/03/05 13:18:38;;;;;;;10.97;9.13;;;;;;;;;;5089907;28;20553;-60
2022/03/05 13:21:05;;;;;;;13.77;10.10;;;;;;;;;;5075996;28;20175;-59
2022/03/05 13:23:34;;;;;;;14.27;9.60;;;;;;;;;;5071242;28;20309;-60
2022/03/05 13:26:00;;;;;;;12.60;9.70;;;;;;;;;;5086808;28;20186;-60
2022/03/05 13:28:28;;;;;;;12.27;9.23;;;;;;;;;;5071253;28;21129;-60
2022/03/05 13:30:56;;;;;;;13.10;9.83;;;;;;;;;;5079606;28;20270;-59
2022/03/05 13:33:35;;;;;;;11.83;9.07;;;;;;;;;;5087396;28;20200;-59
2022/03/05 13:36:23;;;;;;;13.43;8.97;;;;;;;;;;5094194;28;20171;-58
2022/03/05 13:38:51;;;;;;;10.63;8.43;;;;;;;;;;5085275;28;20639;-59
2022/03/05 13:41:21;;;;;;;11.33;9.07;;;;;;;;;;5088842;28;20192;-60
2022/03/05 13:43:48;;;;;;;13.23;9.37;;;;;;;;;;5089738;28;20190;-59
2022/03/05 13:46:16;;;;;;;10.80;9.17;;;;;;;;;;5089647;28;20192;-58
2022/03/05 13:48:43;;;;;;;11.93;9.37;;;;;;;;;;5072570;28;20682;-60
2022/03/05 13:51:17;;;;;;;12.63;8.80;;;;;;;;;;5072208;28;20241;-59
2022/03/05 13:53:44;;;;;;;10.10;7.97;;;;;;;;;;5074566;28;20199;-59
2022/03/05 13:56:10;;;;;;;11.93;9.50;;;;;;;;;;5081853;28;20183;-59
2022/03/05 13:58:38;;;;;;;13.03;9.30;;;;;;;;;;5073936;28;20580;-59
2022/03/05 14:01:13;;;;;;;12.50;9.23;;;;;;;;;;5078256;28;20175;-60
2022/03/05 14:03:39;;;;;;;11.70;9.27;;;;;;;;;;5072227;28;20183;-60
2022/03/05 14:06:12;;;;;;;11.30;9.27;;;;;;;;;;5091059;28;20242;-59
2022/03/05 14:08:50;;;;;;;12.20;8.60;;;;;;;;;;5088137;28;20262;-60
2022/03/05 14:11:16;;;;;;;12.17;9.27;;;;;;;;;;5089824;28;20649;-60
2022/03/05 14:13:47;;;;;;;11.53;9.63;;;;;;;;;;5073949;28;20192;-59
2022/03/05 14:16:33;;;;;;;9.93;8.23;;;;;;;;;;5088833;28;20171;-59
2022/03/05 14:18:59;;;;;;;12.63;8.87;;;;;;;;;;5073593;28;20623;-59
2022/03/05 14:21:26;;;;;;;11.17;9.10;;;;;;;;;;5070362;28;20623;-61
2022/03/05 14:23:52;;;;;;;15.80;9.13;;;;;;;;;;5086443;28;20180;-60
2022/03/05 14:26:20;;;;;;;13.43;8.53;;;;;;;;;;5072400;28;20207;-60
2022/03/05 14:28:47;;;;;;;13.03;9.50;;;;;;;;;;5088711;28;20590;-59